Time;durP1;ratioP1;P1;durP2;ratioP2;P2;SDS_P1;SDS_P2;PMS_P1;PMS_P2;Temp;Humidity;BMP_temperature;BMP_pressure;BME280_temperature;BME280_humidity;BME280_pressure;Samples;Min_cycle;Max_cycle;Signal;HPM_P1;HPM_P2
2022/12/20 00:02:29;;;;;;;;;;;;;;;18.04;32.89;96271.69;10397270;28;2267;-47
2022/12/20 00:07:39;;;;;;;;;;;;;;;18.01;33.07;96267.72;10397788;28;2270;-48
2022/12/20 00:12:40;;;;;;;;;;;;;;;17.97;32.99;96277.09;10397355;28;2334;-48
2022/12/20 00:17:40;;;;;;;;;;;;;;;17.93;33.09;96276.00;10393448;28;2267;-51
2022/12/20 00:22:40;;;;;;;;;;;;;;;17.91;33.03;96285.19;10394218;28;2272;-47
2022/12/20 00:27:41;;;;;;;;;;;;;;;17.88;33.13;96268.91;10391943;28;2128;-47
2022/12/20 00:32:42;;;;;;;;;;;;;;;17.87;33.04;96259.44;10395327;28;2319;-47
2022/12/20 00:37:42;;;;;;;;;;;;;;;17.80;32.96;96264.06;10395856;28;2303;-49
2022/12/20 00:42:43;;;;;;;;;;;;;;;17.81;33.20;96256.97;10399433;28;2475;-48
2022/12/20 00:47:43;;;;;;;;;;;;;;;17.78;33.18;96247.75;10395979;28;2347;-48
2022/12/20 00:52:43;;;;;;;;;;;;;;;17.76;33.12;96251.69;10387010;28;2034;-48
2022/12/20 00:57:43;;;;;;;;;;;;;;;17.76;33.13;96262.94;10398492;28;2263;-48
2022/12/20 01:02:44;;;;;;;;;;;;;;;17.74;32.95;96269.50;10402046;28;2337;-50
2022/12/20 01:07:44;;;;;;;;;;;;;;;17.69;33.08;96275.47;10401027;28;2399;-47
2022/12/20 01:12:44;;;;;;;;;;;;;;;17.69;33.04;96266.78;10397844;28;2436;-49
2022/12/20 01:17:44;;;;;;;;;;;;;;;17.65;33.07;96249.97;10401017;28;2281;-48
2022/12/20 01:22:45;;;;;;;;;;;;;;;17.66;33.14;96260.19;10396942;28;2342;-47
2022/12/20 01:27:45;;;;;;;;;;;;;;;17.66;32.94;96254.97;10399538;28;2046;-47
2022/12/20 01:32:45;;;;;;;;;;;;;;;17.66;32.83;96257.56;10388113;28;2319;-48
2022/12/20 01:37:46;;;;;;;;;;;;;;;17.68;32.76;96242.41;10396326;28;2333;-48
2022/12/20 01:42:46;;;;;;;;;;;;;;;17.71;32.69;96241.94;10397773;28;2362;-48
2022/12/20 01:47:46;;;;;;;;;;;;;;;17.70;32.64;96244.78;10400663;28;2278;-51
2022/12/20 01:52:47;;;;;;;;;;;;;;;17.76;32.51;96249.84;10400641;28;2331;-49
2022/12/20 01:57:51;;;;;;;;;;;;;;;17.76;32.41;96251.69;10408530;28;2433;-46
2022/12/20 02:02:51;;;;;;;;;;;;;;;17.75;32.21;96237.78;10420436;28;2243;-48
2022/12/20 02:07:52;;;;;;;;;;;;;;;17.76;32.31;96235.97;10407944;28;1853;-47
2022/12/20 02:12:56;;;;;;;;;;;;;;;17.74;32.16;96241.41;10410591;28;2361;-50
2022/12/20 02:18:03;;;;;;;;;;;;;;;17.80;31.97;96237.81;10400641;28;2032;-48
2022/12/20 02:23:03;;;;;;;;;;;;;;;17.78;32.10;96224.16;10404299;28;2243;-46
2022/12/20 02:28:18;;;;;;;;;;;;;;;17.83;31.88;96237.34;10402968;28;2274;-47
2022/12/20 02:33:19;;;;;;;;;;;;;;;17.85;31.82;96235.28;10399601;28;2610;-47
2022/12/20 02:38:27;;;;;;;;;;;;;;;17.85;31.85;96244.97;10391830;28;2278;-50
2022/12/20 02:48:46;;;;;;;;;;;;;;;17.93;31.73;96239.28;10402913;28;2405;-47
2022/12/20 02:53:46;;;;;;;;;;;;;;;17.95;31.67;96231.19;10398357;28;2243;-50
2022/12/20 02:58:54;;;;;;;;;;;;;;;17.95;31.61;96215.47;10404929;28;2307;-46
2022/12/20 03:03:54;;;;;;;;;;;;;;;17.95;31.56;96228.56;10407955;28;2340;-46
2022/12/20 03:08:55;;;;;;;;;;;;;;;17.94;31.61;96209.41;10401152;28;1956;-48
2022/12/20 03:13:56;;;;;;;;;;;;;;;17.98;31.59;96209.72;10397856;28;2273;-47
2022/12/20 03:18:56;;;;;;;;;;;;;;;18.03;31.47;96215.81;10404865;28;2336;-49
2022/12/20 03:23:56;;;;;;;;;;;;;;;18.01;31.35;96220.50;10395648;28;2352;-50
2022/12/20 03:28:57;;;;;;;;;;;;;;;18.03;31.38;96217.66;10395497;28;2313;-50
2022/12/20 03:33:57;;;;;;;;;;;;;;;18.03;31.41;96212.41;10396467;28;2335;-47
2022/12/20 03:38:58;;;;;;;;;;;;;;;18.04;31.44;96193.78;10397907;28;2354;-50
2022/12/20 03:43:58;;;;;;;;;;;;;;;18.06;31.32;96185.66;10401927;28;2296;-51
2022/12/20 03:48:58;;;;;;;;;;;;;;;18.07;31.20;96172.31;10395634;28;2287;-50
2022/12/20 03:53:59;;;;;;;;;;;;;;;18.11;31.19;96162.13;10392275;28;2342;-50
2022/12/20 03:58:59;;;;;;;;;;;;;;;18.12;31.26;96184.66;10400528;28;2347;-46
2022/12/20 04:03:59;;;;;;;;;;;;;;;18.12;31.20;96176.81;10395912;28;1980;-49
2022/12/20 04:09:00;;;;;;;;;;;;;;;18.14;31.20;96179.97;10402574;28;2327;-51
2022/12/20 04:14:03;;;;;;;;;;;;;;;18.15;31.14;96182.38;10397282;28;2347;-48
2022/12/20 04:19:03;;;;;;;;;;;;;;;18.19;31.03;96195.78;10397664;28;2049;-47
2022/12/20 04:24:04;;;;;;;;;;;;;;;18.16;31.10;96188.38;10395024;28;2389;-47
2022/12/20 04:29:04;;;;;;;;;;;;;;;18.21;31.02;96189.25;10398109;28;2267;-47
2022/12/20 04:34:04;;;;;;;;;;;;;;;18.21;31.09;96178.75;10392484;28;2283;-47
2022/12/20 04:39:04;;;;;;;;;;;;;;;18.18;31.07;96183.69;10403989;28;2320;-48
2022/12/20 04:44:05;;;;;;;;;;;;;;;18.22;30.92;96174.28;10409026;28;2288;-49
2022/12/20 04:49:05;;;;;;;;;;;;;;;18.20;31.08;96165.84;10399654;28;2312;-48
2022/12/20 04:54:06;;;;;;;;;;;;;;;18.20;31.02;96165.84;10396426;28;2359;-48
2022/12/20 04:59:07;;;;;;;;;;;;;;;18.19;31.14;96161.66;10404330;28;2299;-48
2022/12/20 05:04:07;;;;;;;;;;;;;;;18.19;30.90;96159.84;10400627;28;2270;-49
2022/12/20 05:09:07;;;;;;;;;;;;;;;18.23;30.86;96152.25;10404485;28;2382;-45
2022/12/20 05:14:07;;;;;;;;;;;;;;;18.18;31.07;96136.44;10401818;28;2355;-47
2022/12/20 05:19:08;;;;;;;;;;;;;;;18.18;30.97;96129.38;10394642;28;2283;-49
2022/12/20 05:29:27;;;;;;;;;;;;;;;18.16;31.11;96126.22;10399059;28;2035;-46
2022/12/20 05:34:30;;;;;;;;;;;;;;;18.16;30.91;96130.66;10405919;28;2487;-46
2022/12/20 05:39:31;;;;;;;;;;;;;;;18.19;30.88;96114.44;10396801;28;2259;-47
2022/12/20 05:44:31;;;;;;;;;;;;;;;18.20;30.78;96108.13;10397112;28;2306;-45
2022/12/20 05:49:31;;;;;;;;;;;;;;;18.16;30.92;96102.59;10396443;28;2319;-45
2022/12/20 05:54:31;;;;;;;;;;;;;;;18.17;30.97;96092.91;10397294;28;2284;-45
2022/12/20 05:59:32;;;;;;;;;;;;;;;18.16;30.99;96081.63;10386361;28;2080;-47
2022/12/20 06:04:41;;;;;;;;;;;;;;;18.12;30.93;96101.53;10393085;28;2282;-48
2022/12/20 06:09:41;;;;;;;;;;;;;;;18.17;30.90;96103.41;10402939;28;1942;-48
2022/12/20 06:14:42;;;;;;;;;;;;;;;18.15;30.76;96097.63;10400901;28;2376;-49
2022/12/20 06:19:42;;;;;;;;;;;;;;;18.16;30.90;96094.72;10399901;28;2301;-49
2022/12/20 06:24:42;;;;;;;;;;;;;;;18.22;30.85;96093.72;10393572;28;2316;-50
2022/12/20 06:29:50;;;;;;;;;;;;;;;18.28;30.64;96102.47;10395811;28;1969;-49
2022/12/20 06:34:50;;;;;;;;;;;;;;;18.29;30.77;96101.41;10396987;28;2342;-49
2022/12/20 06:39:51;;;;;;;;;;;;;;;18.29;30.72;96107.44;10401336;28;2326;-49
2022/12/20 06:44:51;;;;;;;;;;;;;;;18.35;30.66;96105.66;10398750;28;2436;-48
2022/12/20 06:49:51;;;;;;;;;;;;;;;18.39;30.67;96104.09;10396558;28;1854;-47
2022/12/20 06:54:52;;;;;;;;;;;;;;;18.43;30.70;96092.06;10399050;28;2292;-47
2022/12/20 06:59:52;;;;;;;;;;;;;;;18.51;30.82;96091.63;10394585;28;2250;-47
2022/12/20 07:04:53;;;;;;;;;;;;;;;18.54;30.92;96099.00;10399315;28;2345;-48
2022/12/20 07:09:53;;;;;;;;;;;;;;;18.47;29.90;96085.28;10398283;28;2055;-47
2022/12/20 07:14:53;;;;;;;;;;;;;;;18.42;30.25;96077.38;10389699;28;2274;-46
2022/12/20 07:19:54;;;;;;;;;;;;;;;18.44;30.34;96081.31;10392583;28;1969;-49
2022/12/20 07:24:54;;;;;;;;;;;;;;;18.46;30.47;96083.72;10398433;28;2296;-51
2022/12/20 07:29:56;;;;;;;;;;;;;;;18.47;30.29;96080.03;10388789;28;2281;-47
2022/12/20 07:34:56;;;;;;;;;;;;;;;18.54;30.79;96085.88;10395981;28;2450;-50
2022/12/20 07:39:56;;;;;;;;;;;;;;;18.62;30.91;96085.41;10397956;28;2299;-47
2022/12/20 07:44:57;;;;;;;;;;;;;;;18.70;31.20;96098.06;10402501;28;2333;-46
2022/12/20 07:49:57;;;;;;;;;;;;;;;18.69;31.36;96102.50;10390553;28;1937;-49
2022/12/20 07:54:59;;;;;;;;;;;;;;;18.77;31.40;96110.97;10397936;28;2327;-50
2022/12/20 08:00:10;;;;;;;;;;;;;;;18.75;31.42;96121.75;10396102;28;2331;-49
2022/12/20 08:05:20;;;;;;;;;;;;;;;18.75;31.37;96120.94;10393384;28;2384;-50
2022/12/20 08:10:30;;;;;;;;;;;;;;;18.79;31.45;96114.94;10391655;28;2350;-47
2022/12/20 08:15:41;;;;;;;;;;;;;;;18.78;31.43;96108.09;10388299;28;1921;-47
2022/12/20 08:20:47;;;;;;;;;;;;;;;18.81;31.17;96112.84;10393223;28;2333;-46
2022/12/20 08:25:59;;;;;;;;;;;;;;;18.81;31.34;96109.44;10391948;28;2263;-49
2022/12/20 08:31:09;;;;;;;;;;;;;;;18.81;31.46;96091.84;10387110;28;2332;-50
2022/12/20 08:36:12;;;;;;;;;;;;;;;18.69;35.75;96092.00;10392567;28;2299;-47
2022/12/20 08:41:22;;;;;;;;;;;;;;;18.54;37.93;96102.44;10389168;28;2545;-51
2022/12/20 08:46:32;;;;;;;;;;;;;;;18.37;39.54;96099.13;10395695;28;2336;-48
2022/12/20 08:51:43;;;;;;;;;;;;;;;18.27;40.80;96108.72;10388094;28;2292;-48
2022/12/20 08:56:53;;;;;;;;;;;;;;;18.19;41.15;96110.00;10386384;28;2427;-47
2022/12/20 09:01:55;;;;;;;;;;;;;;;18.10;41.46;96102.81;10387765;28;2443;-49
2022/12/20 09:07:05;;;;;;;;;;;;;;;18.06;42.12;96091.22;10394908;28;8195;-50
2022/12/20 09:12:06;;;;;;;;;;;;;;;18.03;42.70;96095.16;10393826;28;7906;-43
2022/12/20 09:17:06;;;;;;;;;;;;;;;18.00;42.37;96082.53;10395378;28;2347;-43
2022/12/20 09:22:10;;;;;;;;;;;;;;;17.98;42.44;96073.31;10393711;28;3052;-44
2022/12/20 09:27:10;;;;;;;;;;;;;;;17.96;42.73;96062.28;10402812;28;2320;-45
2022/12/20 09:32:11;;;;;;;;;;;;;;;17.93;42.83;96068.03;10403938;28;2291;-43
2022/12/20 09:37:12;;;;;;;;;;;;;;;17.91;42.53;96060.41;10392732;28;8232;-44
2022/12/20 09:42:19;;;;;;;;;;;;;;;17.92;42.07;96055.97;10395172;28;2437;-44
2022/12/20 09:47:19;;;;;;;;;;;;;;;17.88;42.25;96045.97;10399773;28;2240;-43
2022/12/20 09:52:20;;;;;;;;;;;;;;;17.89;42.52;96038.88;10396980;28;2474;-44
2022/12/20 09:57:29;;;;;;;;;;;;;;;17.87;42.61;96035.72;10401371;28;2387;-43
2022/12/20 10:02:29;;;;;;;;;;;;;;;17.86;42.24;96026.28;10401558;28;2319;-44
2022/12/20 10:07:38;;;;;;;;;;;;;;;17.92;41.61;96032.34;10401233;28;2389;-47
2022/12/20 10:12:39;;;;;;;;;;;;;;;17.92;41.14;96016.63;10406558;28;7990;-48
2022/12/20 10:17:58;;;;;;;;;;;;;;;17.92;40.95;96021.88;10401171;28;2364;-43
2022/12/20 10:23:00;;;;;;;;;;;;;;;17.93;40.44;96018.22;10398506;28;8084;-43
2022/12/20 10:28:11;;;;;;;;;;;;;;;17.92;39.75;96014.78;10394689;28;7885;-44
2022/12/20 10:33:22;;;;;;;;;;;;;;;17.87;40.21;96025.22;10394625;28;2367;-43
2022/12/20 10:38:24;;;;;;;;;;;;;;;17.85;39.98;96028.09;10388476;28;2936;-46
2022/12/20 10:43:25;;;;;;;;;;;;;;;17.84;39.59;96005.56;10382335;28;2335;-43
2022/12/20 10:48:25;;;;;;;;;;;;;;;17.83;39.18;95993.47;10379780;28;2275;-45
2022/12/20 10:53:36;;;;;;;;;;;;;;;17.82;39.26;95980.63;10383097;28;5478;-44
2022/12/20 10:58:56;;;;;;;;;;;;;;;17.78;39.30;95966.44;10384463;28;2220;-44
2022/12/20 11:04:27;;;;;;;;;;;;;;;17.82;38.72;95957.81;10385667;28;2263;-45
2022/12/20 11:09:52;;;;;;;;;;;;;;;17.95;38.74;95953.19;10384864;28;2343;-45
2022/12/20 11:15:19;;;;;;;;;;;;;;;18.00;38.19;95937.47;10384373;28;2017;-45
2022/12/20 11:20:24;;;;;;;;;;;;;;;18.03;37.82;95942.22;10385025;28;2306;-45
2022/12/20 11:25:36;;;;;;;;;;;;;;;18.04;36.17;95933.28;10386748;28;2012;-45
2022/12/20 11:30:39;;;;;;;;;;;;;;;18.09;36.72;95928.91;10382737;28;5307;-45
2022/12/20 11:35:46;;;;;;;;;;;;;;;18.10;35.62;95924.41;10384512;28;1952;-44
2022/12/20 11:40:48;;;;;;;;;;;;;;;18.08;35.02;95911.56;10379185;28;2277;-44
2022/12/20 11:45:55;;;;;;;;;;;;;;;18.11;34.99;95902.41;10388692;28;2009;-45
2022/12/20 11:50:55;;;;;;;;;;;;;;;18.15;34.88;95883.28;10386188;28;2320;-44
2022/12/20 11:55:57;;;;;;;;;;;;;;;18.22;34.81;95865.47;10384774;28;2001;-44
2022/12/20 12:01:08;;;;;;;;;;;;;;;18.26;34.95;95865.75;10373520;28;2331;-44
2022/12/20 12:06:29;;;;;;;;;;;;;;;18.28;34.69;95861.03;10382252;28;2297;-45
2022/12/20 12:11:31;;;;;;;;;;;;;;;18.31;34.21;95863.13;10394934;28;1914;-44
2022/12/20 12:16:36;;;;;;;;;;;;;;;18.33;34.17;95861.03;10414294;28;2413;-45
2022/12/20 12:21:38;;;;;;;;;;;;;;;18.34;34.20;95857.41;10390223;28;2364;-44
2022/12/20 12:26:39;;;;;;;;;;;;;;;18.36;33.78;95850.06;10415036;28;6417;-46
2022/12/20 12:31:39;;;;;;;;;;;;;;;18.38;33.77;95846.09;10395727;28;1894;-46
2022/12/20 12:36:50;;;;;;;;;;;;;;;18.41;33.68;95840.34;10401361;28;1945;-44
2022/12/20 12:42:01;;;;;;;;;;;;;;;18.42;33.72;95843.78;10392018;28;2362;-46
2022/12/20 12:47:04;;;;;;;;;;;;;;;18.43;33.67;95842.72;10398057;28;2272;-45
2022/12/20 12:52:04;;;;;;;;;;;;;;;18.46;33.66;95831.75;10396484;28;1942;-44
2022/12/20 12:57:11;;;;;;;;;;;;;;;18.45;33.45;95817.03;10405028;28;1961;-45
2022/12/20 13:02:11;;;;;;;;;;;;;;;18.47;33.30;95825.44;10399349;28;2428;-44
2022/12/20 13:07:24;;;;;;;;;;;;;;;18.51;33.52;95816.78;10400510;28;1941;-44
2022/12/20 13:12:45;;;;;;;;;;;;;;;18.53;33.03;95824.41;10401960;28;1964;-44
2022/12/20 13:17:52;;;;;;;;;;;;;;;18.53;33.19;95819.16;10400213;28;1998;-49
2022/12/20 13:23:06;;;;;;;;;;;;;;;18.53;32.98;95819.16;10398652;28;2673;-44
2022/12/20 13:28:12;;;;;;;;;;;;;;;18.57;33.16;95828.88;10405772;28;6693;-45
2022/12/20 13:33:31;;;;;;;;;;;;;;;18.59;33.19;95826.78;10398801;28;1958;-43
2022/12/20 13:38:50;;;;;;;;;;;;;;;18.59;32.87;95833.88;10412262;28;2383;-44
2022/12/20 13:43:50;;;;;;;;;;;;;;;18.60;33.09;95831.00;10406633;28;2348;-48
2022/12/20 13:49:01;;;;;;;;;;;;;;;18.65;33.35;95843.34;10417160;28;1928;-44
2022/12/20 13:54:03;;;;;;;;;;;;;;;18.65;33.35;95822.31;10409201;28;2329;-44
2022/12/20 13:59:04;;;;;;;;;;;;;;;18.67;33.13;95817.59;10421469;28;2273;-46
2022/12/20 14:04:06;;;;;;;;;;;;;;;18.68;32.81;95813.94;10399396;28;1944;-45
2022/12/20 14:09:24;;;;;;;;;;;;;;;18.69;33.03;95805.03;10401128;28;2029;-44
2022/12/20 14:14:38;;;;;;;;;;;;;;;18.70;32.85;95798.72;10402581;28;2231;-45
2022/12/20 14:19:38;;;;;;;;;;;;;;;18.77;33.23;95794.00;10398562;28;1988;-44
2022/12/20 14:24:39;;;;;;;;;;;;;;;18.83;33.49;95789.53;10397772;28;2058;-46
2022/12/20 14:29:41;;;;;;;;;;;;;;;18.85;33.50;95776.94;10408483;28;5120;-45
2022/12/20 14:34:41;;;;;;;;;;;;;;;18.84;33.18;95768.28;10391774;28;2227;-44
2022/12/20 14:39:53;;;;;;;;;;;;;;;18.84;33.18;95743.84;10403799;28;2365;-45
2022/12/20 14:45:01;;;;;;;;;;;;;;;18.81;33.26;95762.75;10396517;28;2408;-46
2022/12/20 14:50:05;;;;;;;;;;;;;;;18.80;33.12;95775.09;10400669;28;2480;-44
2022/12/20 14:55:19;;;;;;;;;;;;;;;18.79;33.21;95781.41;10397461;28;1894;-48
2022/12/20 15:00:23;;;;;;;;;;;;;;;18.77;33.16;95775.63;10418110;28;2263;-45
2022/12/20 15:05:32;;;;;;;;;;;;;;;18.77;33.36;95764.34;10394802;28;2367;-45
2022/12/20 15:10:32;;;;;;;;;;;;;;;18.78;32.79;95774.56;10400575;28;2361;-45
2022/12/20 15:15:33;;;;;;;;;;;;;;;18.79;33.14;95773.53;10403581;28;2357;-46
2022/12/20 15:20:33;;;;;;;;;;;;;;;18.80;33.10;95772.47;10390234;28;2332;-44
2022/12/20 15:25:33;;;;;;;;;;;;;;;18.97;33.67;95773.00;10398654;28;2450;-44
2022/12/20 15:30:34;;;;;;;;;;;;;;;19.06;33.37;95754.91;10414003;28;5545;-45
2022/12/20 15:35:38;;;;;;;;;;;;;;;19.09;33.52;95730.72;10396714;28;2324;-48
2022/12/20 15:40:39;;;;;;;;;;;;;;;19.13;33.25;95742.25;10398057;28;2307;-45
2022/12/20 15:45:40;;;;;;;;;;;;;;;19.10;33.35;95756.72;10400500;28;2372;-46
2022/12/20 15:50:41;;;;;;;;;;;;;;;19.14;33.38;95743.84;10398407;28;2331;-45
2022/12/20 15:55:41;;;;;;;;;;;;;;;19.14;33.25;95746.47;10399931;28;1945;-44
2022/12/20 16:00:42;;;;;;;;;;;;;;;19.17;32.97;95751.97;10399443;28;2354;-45
2022/12/20 16:05:42;;;;;;;;;;;;;;;19.19;33.11;95755.13;10397170;28;2292;-46
2022/12/20 16:10:48;;;;;;;;;;;;;;;19.24;33.32;95751.72;10401031;28;2289;-44
2022/12/20 16:15:49;;;;;;;;;;;;;;;19.32;32.99;95748.56;10396288;28;2091;-44
2022/12/20 16:20:49;;;;;;;;;;;;;;;19.35;33.41;95738.31;10390132;28;1950;-45
2022/12/20 16:25:49;;;;;;;;;;;;;;;19.36;33.38;95742.53;10395414;28;1992;-44
2022/12/20 16:30:50;;;;;;;;;;;;;;;19.41;33.50;95741.75;10394991;28;5010;-47
2022/12/20 16:35:50;;;;;;;;;;;;;;;19.40;33.28;95737.53;10400867;28;2269;-49
2022/12/20 16:40:50;;;;;;;;;;;;;;;19.43;33.02;95729.13;10407797;28;2286;-50
2022/12/20 16:45:51;;;;;;;;;;;;;;;19.40;33.13;95727.81;10399906;28;2296;-48
2022/12/20 16:50:52;;;;;;;;;;;;;;;19.37;33.12;95745.97;10398203;28;2275;-48
2022/12/20 16:55:52;;;;;;;;;;;;;;;19.40;33.15;95746.22;10405987;28;2392;-48
2022/12/20 17:00:53;;;;;;;;;;;;;;;19.40;32.89;95743.59;10409534;28;2316;-48
2022/12/20 17:05:56;;;;;;;;;;;;;;;19.45;32.79;95740.94;10395752;28;2413;-46
2022/12/20 17:10:56;;;;;;;;;;;;;;;19.41;32.84;95745.16;10397429;28;2350;-47
2022/12/20 17:15:57;;;;;;;;;;;;;;;19.50;32.86;95737.50;10401596;28;2289;-46
2022/12/20 17:20:57;;;;;;;;;;;;;;;19.49;32.89;95749.09;10398997;28;2323;-47
2022/12/20 17:25:57;;;;;;;;;;;;;;;19.52;32.87;95758.25;10421884;28;2363;-48
2022/12/20 17:30:57;;;;;;;;;;;;;;;19.46;33.00;95741.72;10402760;28;5121;-47
2022/12/20 17:35:58;;;;;;;;;;;;;;;19.32;32.39;95746.72;10404993;28;2263;-48
2022/12/20 17:40:58;;;;;;;;;;;;;;;19.18;32.62;95732.56;10405218;28;1898;-46
2022/12/20 17:45:58;;;;;;;;;;;;;;;19.37;32.93;95738.84;10416933;28;2275;-47
2022/12/20 17:50:59;;;;;;;;;;;;;;;19.05;32.73;95725.19;10396590;28;2280;-48
2022/12/20 17:56:00;;;;;;;;;;;;;;;18.84;32.64;95735.97;10397049;28;2324;-46
2022/12/20 18:01:00;;;;;;;;;;;;;;;18.88;32.34;95743.06;10404842;28;2333;-47
2022/12/20 18:06:04;;;;;;;;;;;;;;;19.20;32.78;95738.34;10410481;28;2301;-49
2022/12/20 18:11:04;;;;;;;;;;;;;;;19.28;32.55;95716.78;10404115;28;2453;-48
2022/12/20 18:16:05;;;;;;;;;;;;;;;19.34;32.48;95718.38;10416378;28;1883;-46
2022/12/20 18:21:06;;;;;;;;;;;;;;;19.41;32.49;95718.09;10393055;28;2304;-50
2022/12/20 18:26:16;;;;;;;;;;;;;;;19.46;32.30;95736.47;10398967;28;2618;-46
2022/12/20 18:31:17;;;;;;;;;;;;;;;19.48;32.28;95745.66;10396690;28;3015;-47
2022/12/20 18:36:18;;;;;;;;;;;;;;;19.46;32.44;95731.22;10391182;28;2155;-49
2022/12/20 18:41:20;;;;;;;;;;;;;;;19.32;31.99;95723.06;10394547;28;2648;-50
2022/12/20 18:46:21;;;;;;;;;;;;;;;17.62;33.08;95732.22;10402578;28;2550;-49
2022/12/20 18:51:28;;;;;;;;;;;;;;;16.78;33.78;95715.66;10394210;28;2660;-52
2022/12/20 18:56:29;;;;;;;;;;;;;;;16.23;34.78;95699.44;10402985;28;2621;-49
2022/12/20 19:01:30;;;;;;;;;;;;;;;15.56;35.84;95698.19;10392946;28;2080;-49
2022/12/20 19:06:31;;;;;;;;;;;;;;;15.22;36.33;95698.22;10390937;28;2749;-48
2022/12/20 19:11:31;;;;;;;;;;;;;;;14.82;37.08;95720.34;10408694;28;2539;-49
2022/12/20 19:16:32;;;;;;;;;;;;;;;14.56;37.91;95719.16;10396712;28;2171;-51
2022/12/20 19:21:33;;;;;;;;;;;;;;;15.11;37.25;95708.75;10401733;28;2124;-47
2022/12/20 19:26:34;;;;;;;;;;;;;;;16.02;35.95;95692.44;10391970;28;4911;-49
2022/12/20 19:31:35;;;;;;;;;;;;;;;16.59;35.28;95677.81;10396264;28;2645;-45
2022/12/20 19:36:35;;;;;;;;;;;;;;;16.95;34.59;95671.81;10395873;28;2131;-45
2022/12/20 19:41:36;;;;;;;;;;;;;;;17.24;33.97;95663.59;10397462;28;2619;-45
2022/12/20 19:46:37;;;;;;;;;;;;;;;17.47;33.48;95653.50;10396839;28;2609;-47
2022/12/20 19:51:37;;;;;;;;;;;;;;;17.68;33.13;95649.91;10394462;28;2601;-47
2022/12/20 19:56:37;;;;;;;;;;;;;;;17.83;32.77;95647.34;10396858;28;2195;-47
2022/12/20 20:01:38;;;;;;;;;;;;;;;17.98;32.67;95640.56;10389241;28;2627;-49
2022/12/20 20:06:38;;;;;;;;;;;;;;;18.10;32.74;95639.28;10396707;28;2610;-47
2022/12/20 20:11:38;;;;;;;;;;;;;;;18.21;32.36;95621.72;10400217;28;2597;-48
2022/12/20 20:16:38;;;;;;;;;;;;;;;18.30;31.86;95610.44;10393151;28;2634;-46
2022/12/20 20:21:39;;;;;;;;;;;;;;;18.40;32.05;95618.31;10398179;28;2721;-47
2022/12/20 20:26:39;;;;;;;;;;;;;;;18.46;31.68;95617.31;10398921;28;4998;-46
2022/12/20 20:31:40;;;;;;;;;;;;;;;18.55;31.83;95628.84;10393419;28;2148;-49
2022/12/20 20:36:40;;;;;;;;;;;;;;;18.64;31.85;95631.72;10407353;28;2630;-46
2022/12/20 20:41:41;;;;;;;;;;;;;;;18.67;31.80;95629.34;10410102;28;2128;-50
2022/12/20 20:46:42;;;;;;;;;;;;;;;18.79;31.93;95617.81;10385617;28;2634;-51
2022/12/20 20:51:42;;;;;;;;;;;;;;;18.84;31.77;95602.81;10392793;28;2627;-48
2022/12/20 20:56:43;;;;;;;;;;;;;;;18.88;31.68;95603.06;10389590;28;2144;-46
2022/12/20 21:01:43;;;;;;;;;;;;;;;18.89;32.12;95597.56;10399706;28;2104;-48
2022/12/20 21:06:44;;;;;;;;;;;;;;;18.91;31.64;95610.44;10385398;28;2612;-47
2022/12/20 21:11:45;;;;;;;;;;;;;;;19.05;32.05;95606.19;10390489;28;2598;-49
2022/12/20 21:16:45;;;;;;;;;;;;;;;19.13;32.34;95587.25;10401746;28;2692;-48
2022/12/20 21:21:45;;;;;;;;;;;;;;;19.15;32.69;95601.69;10400305;28;2163;-50
2022/12/20 21:26:46;;;;;;;;;;;;;;;19.21;32.94;95584.06;10398391;28;5073;-47
2022/12/20 21:31:46;;;;;;;;;;;;;;;19.27;32.97;95583.78;10400058;28;2567;-46
2022/12/20 21:36:46;;;;;;;;;;;;;;;19.29;33.00;95584.28;10395794;28;2124;-47
2022/12/20 21:41:46;;;;;;;;;;;;;;;19.30;33.26;95595.59;10401238;28;2628;-50
2022/12/20 21:46:47;;;;;;;;;;;;;;;19.29;32.97;95597.44;10403831;28;2656;-46
2022/12/20 21:51:47;;;;;;;;;;;;;;;19.19;32.85;95609.81;10399541;28;2155;-50
2022/12/20 21:56:48;;;;;;;;;;;;;;;19.24;33.19;95609.81;10403576;28;2589;-47
2022/12/20 22:01:48;;;;;;;;;;;;;;;19.22;33.25;95610.09;10404336;28;2616;-50
2022/12/20 22:06:48;;;;;;;;;;;;;;;19.24;33.65;95604.56;10400760;28;2643;-50
2022/12/20 22:11:49;;;;;;;;;;;;;;;19.21;34.50;95626.09;10398452;28;2524;-47
2022/12/20 22:16:49;;;;;;;;;;;;;;;19.15;34.90;95658.69;10399297;28;2613;-50
2022/12/20 22:21:49;;;;;;;;;;;;;;;19.17;34.75;95661.84;10399824;28;2609;-48
2022/12/20 22:26:50;;;;;;;;;;;;;;;19.10;34.85;95654.25;10399860;28;5005;-47
2022/12/20 22:31:51;;;;;;;;;;;;;;;19.08;35.13;95640.59;10396417;28;2104;-49
2022/12/20 22:36:51;;;;;;;;;;;;;;;19.02;35.15;95641.66;10396926;28;2178;-48
2022/12/20 22:41:53;;;;;;;;;;;;;;;18.96;35.18;95655.84;10401144;28;2518;-50
2022/12/20 22:46:54;;;;;;;;;;;;;;;18.92;35.03;95660.06;10401725;28;2607;-49
2022/12/20 22:51:54;;;;;;;;;;;;;;;18.90;34.96;95643.00;10398326;28;2561;-51
2022/12/20 22:56:55;;;;;;;;;;;;;;;18.83;35.25;95630.16;10401297;28;2143;-49
2022/12/20 23:01:55;;;;;;;;;;;;;;;18.79;34.78;95634.34;10400777;28;2601;-47
2022/12/20 23:06:55;;;;;;;;;;;;;;;18.78;34.75;95617.00;10391996;28;2591;-47
2022/12/20 23:17:16;;;;;;;;;;;;;;;18.73;35.04;95613.63;10385047;28;2686;-49
2022/12/20 23:22:38;;;;;;;;;;;;;;;18.66;34.95;95606.00;10400409;28;2622;-47
2022/12/20 23:27:37;;;;;;;;;;;;;;;18.62;34.89;95607.59;10389762;28;4931;-50
2022/12/20 23:32:37;;;;;;;;;;;;;;;18.59;34.83;95618.59;10397853;28;2112;-53
2022/12/20 23:37:38;;;;;;;;;;;;;;;18.55;34.82;95617.56;10382854;28;2568;-48
2022/12/20 23:42:38;;;;;;;;;;;;;;;18.53;34.86;95599.44;10399097;28;2621;-49
2022/12/20 23:47:39;;;;;;;;;;;;;;;18.53;34.83;95609.16;10391281;28;2695;-49
2022/12/20 23:52:39;;;;;;;;;;;;;;;18.49;34.73;95610.72;10390356;28;2548;-48
2022/12/20 23:57:39;;;;;;;;;;;;;;;18.45;34.82;95628.06;10394803;28;2222;-50
